createdAt,value
2022-09-26T00:01:32.991Z,10.30
2022-09-26T00:04:02.079Z,10.30
2022-09-26T00:06:30.288Z,10.30
2022-09-26T00:08:58.211Z,10.30
2022-09-26T00:11:28.356Z,10.20
2022-09-26T00:13:58.081Z,10.30
2022-09-26T00:16:26.610Z,10.30
2022-09-26T00:18:56.934Z,10.20
2022-09-26T00:21:26.541Z,10.30
2022-09-26T00:23:55.072Z,10.20
2022-09-26T00:26:24.054Z,10.20
2022-09-26T00:28:52.218Z,10.20
2022-09-26T00:31:20.984Z,10.20
2022-09-26T00:33:48.955Z,10.20
2022-09-26T00:36:18.293Z,10.20
2022-09-26T00:38:46.325Z,10.20
2022-09-26T00:41:14.754Z,10.20
2022-09-26T00:43:43.681Z,10.10
2022-09-26T00:46:15.599Z,10.10
2022-09-26T00:48:47.476Z,10.10
2022-09-26T00:51:15.566Z,10.20
2022-09-26T00:53:46.834Z,10.20
2022-09-26T00:56:16.431Z,10.20
2022-09-26T00:58:45.594Z,10.20
2022-09-26T01:01:14.551Z,10.30
2022-09-26T01:03:43.732Z,10.20
2022-09-26T01:06:11.925Z,10.20
2022-09-26T01:08:41.628Z,10.20
2022-09-26T01:11:16.942Z,10.30
2022-09-26T01:13:45.730Z,10.30
2022-09-26T01:16:13.821Z,10.20
2022-09-26T01:18:41.934Z,10.20
2022-09-26T01:21:17.405Z,10.20
2022-09-26T01:23:57.763Z,10.20
2022-09-26T01:26:44.130Z,10.10
2022-09-26T01:29:33.059Z,10.20
2022-09-26T01:32:22.697Z,10.10
2022-09-26T01:34:54.024Z,10.00
2022-09-26T01:37:26.974Z,10.10
2022-09-26T01:39:58.588Z,10.10
2022-09-26T01:42:30.136Z,10.10
2022-09-26T01:45:02.349Z,10.00
2022-09-26T01:47:38.185Z,10.10
2022-09-26T01:50:10.614Z,10.20
2022-09-26T01:52:40.603Z,10.20
2022-09-26T01:55:10.281Z,10.30
2022-09-26T01:57:40.780Z,10.20
2022-09-26T02:00:12.645Z,10.20
2022-09-26T02:02:46.288Z,10.20
2022-09-26T02:05:17.327Z,10.20
2022-09-26T02:07:48.414Z,10.30
2022-09-26T02:10:18.305Z,10.30
2022-09-26T02:12:48.664Z,10.40
2022-09-26T02:15:18.789Z,10.30
2022-09-26T02:17:50.171Z,10.30
2022-09-26T02:20:21.330Z,10.30
2022-09-26T02:22:49.327Z,10.30
2022-09-26T02:25:17.270Z,10.30
2022-09-26T02:27:45.344Z,10.30
2022-09-26T02:30:15.767Z,10.30
2022-09-26T02:32:43.775Z,10.30
2022-09-26T02:35:36.815Z,10.30
2022-09-26T02:38:05.791Z,10.30
2022-09-26T02:40:37.455Z,10.30
2022-09-26T02:43:14.455Z,10.30
2022-09-26T02:45:45.048Z,10.20
2022-09-26T02:48:20.313Z,10.20
2022-09-26T02:51:13.783Z,10.20
2022-09-26T02:53:50.158Z,10.20
2022-09-26T02:56:23.614Z,10.20
2022-09-26T02:58:59.747Z,10.10
2022-09-26T03:01:31.129Z,10.00
2022-09-26T03:04:01.498Z,10.00
2022-09-26T03:06:34.131Z,10.00
2022-09-26T03:09:02.812Z,10.00
2022-09-26T03:11:31.530Z,10.00
2022-09-26T03:14:01.913Z,10.00
2022-09-26T03:16:31.599Z,10.00
2022-09-26T03:19:03.666Z,10.00
2022-09-26T03:21:37.099Z,10.10
2022-09-26T03:24:05.395Z,10.10
2022-09-26T03:26:34.237Z,10.10
2022-09-26T03:29:02.485Z,10.20
2022-09-26T03:31:31.534Z,10.20
2022-09-26T03:33:59.612Z,10.20
2022-09-26T03:36:27.555Z,10.10
2022-09-26T03:38:56.867Z,10.20
2022-09-26T03:41:24.824Z,10.10
2022-09-26T03:43:52.857Z,10.20
2022-09-26T03:46:20.824Z,10.10
2022-09-26T03:48:49.270Z,10.20
2022-09-26T03:51:17.287Z,10.20
2022-09-26T03:53:47.284Z,10.20
2022-09-26T03:56:18.111Z,10.20
2022-09-26T03:58:46.513Z,10.20
2022-09-26T04:01:18.129Z,10.20
2022-09-26T04:03:50.555Z,10.20
2022-09-26T04:06:20.471Z,10.20
2022-09-26T04:08:49.618Z,10.30
2022-09-26T04:11:21.278Z,10.40
2022-09-26T04:13:53.289Z,10.40
2022-09-26T04:16:22.865Z,10.50
2022-09-26T04:18:54.266Z,10.50
2022-09-26T04:21:22.218Z,10.60
2022-09-26T04:23:50.426Z,10.60
2022-09-26T04:26:23.301Z,10.60
2022-09-26T04:28:52.313Z,10.70
2022-09-26T04:31:22.722Z,10.80
2022-09-26T04:33:51.164Z,10.80
2022-09-26T04:36:19.195Z,10.80
2022-09-26T04:38:47.143Z,10.80
2022-09-26T04:41:16.435Z,10.80
2022-09-26T04:43:45.767Z,10.80
2022-09-26T04:46:18.569Z,10.80
2022-09-26T04:48:49.393Z,10.80
2022-09-26T04:51:18.245Z,10.80
2022-09-26T04:53:46.487Z,10.90
2022-09-26T04:56:15.042Z,10.90
2022-09-26T04:58:43.564Z,10.90
2022-09-26T05:01:13.763Z,10.90
2022-09-26T05:03:42.076Z,10.90
2022-09-26T05:06:10.707Z,10.90
2022-09-26T05:08:39.091Z,11.00
2022-09-26T05:11:07.259Z,11.00
2022-09-26T05:13:35.534Z,11.00
2022-09-26T05:16:03.885Z,10.90
2022-09-26T05:18:33.767Z,11.00
2022-09-26T05:21:05.963Z,11.00
2022-09-26T05:23:51.939Z,11.10
2022-09-26T05:26:22.540Z,11.00
2022-09-26T05:28:52.290Z,11.10
2022-09-26T05:31:20.455Z,11.10
2022-09-26T05:33:51.498Z,11.10
2022-09-26T05:36:20.201Z,11.10
2022-09-26T05:38:48.321Z,11.10
2022-09-26T05:41:15.295Z,11.10
2022-09-26T05:43:43.556Z,11.10
2022-09-26T05:46:12.392Z,11.10
2022-09-26T05:48:40.843Z,11.10
2022-09-26T05:51:12.602Z,11.10
2022-09-26T06:04:34.594Z,11.20
2022-09-26T06:07:04.087Z,11.20
2022-09-26T06:09:32.050Z,11.20
2022-09-26T06:12:00.222Z,11.20
2022-09-26T06:14:29.762Z,11.20
2022-09-26T06:16:59.314Z,11.30
2022-09-26T06:19:29.490Z,11.30
2022-09-26T06:21:57.507Z,11.30
2022-09-26T06:24:26.838Z,11.30
2022-09-26T06:26:54.766Z,11.40
2022-09-26T06:29:22.850Z,11.40
2022-09-26T06:31:50.925Z,11.50
2022-09-26T06:34:19.003Z,11.50
2022-09-26T06:36:47.579Z,11.50
2022-09-26T06:39:16.048Z,11.60
2022-09-26T06:41:45.634Z,11.60
2022-09-26T06:44:13.575Z,11.70
2022-09-26T06:46:42.110Z,11.80
2022-09-26T06:49:10.375Z,11.80
2022-09-26T06:51:39.091Z,11.90
2022-09-26T06:54:07.097Z,11.90
2022-09-26T06:56:35.174Z,11.90
2022-09-26T06:59:07.060Z,12.00
2022-09-26T07:01:35.303Z,12.10
2022-09-26T07:04:04.109Z,12.10
2022-09-26T07:06:32.285Z,12.10
2022-09-26T07:09:03.851Z,12.10
2022-09-26T07:11:50.621Z,12.10
2022-09-26T07:14:22.300Z,12.20
2022-09-26T07:16:50.886Z,12.20
2022-09-26T07:19:21.887Z,12.20
2022-09-26T07:21:50.077Z,12.20
2022-09-26T07:24:19.192Z,12.20
2022-09-26T07:26:47.163Z,12.20
2022-09-26T07:29:15.217Z,12.20
2022-09-26T07:31:47.655Z,12.20
2022-09-26T07:34:18.353Z,12.20
2022-09-26T07:36:51.846Z,12.20
2022-09-26T07:39:20.299Z,12.20
2022-09-26T07:41:49.901Z,12.10
2022-09-26T07:47:25.134Z,12.10
2022-09-26T07:50:10.393Z,12.10
2022-09-26T07:52:38.715Z,12.20
2022-09-26T07:55:08.369Z,12.20
2022-09-26T07:57:36.649Z,12.20
2022-09-26T08:00:05.955Z,12.20
2022-09-26T08:02:36.102Z,12.30
2022-09-26T08:05:05.266Z,12.30
2022-09-26T08:07:33.688Z,12.30
2022-09-26T08:10:03.216Z,12.30
2022-09-26T08:12:35.658Z,12.30
2022-09-26T08:15:06.685Z,12.40
2022-09-26T08:17:36.263Z,12.40
2022-09-26T08:20:04.298Z,12.40
2022-09-26T08:22:32.229Z,12.50
2022-09-26T08:25:00.443Z,12.50
2022-09-26T08:27:32.939Z,12.70
2022-09-26T08:30:00.979Z,12.70
2022-09-26T08:32:32.489Z,12.80
2022-09-26T08:35:01.939Z,12.90
2022-09-26T08:37:31.340Z,12.90
2022-09-26T08:40:00.934Z,13.00
2022-09-26T08:42:40.440Z,13.10
2022-09-26T08:45:47.555Z,13.10
2022-09-26T08:48:21.839Z,13.30
2022-09-26T08:50:52.799Z,13.30
2022-09-26T08:53:23.298Z,13.30
2022-09-26T08:55:53.775Z,13.30
2022-09-26T08:58:28.462Z,13.30
2022-09-26T09:01:00.359Z,13.30
2022-09-26T09:03:32.444Z,13.40
2022-09-26T09:06:04.391Z,13.50
2022-09-26T09:08:36.835Z,13.50
2022-09-26T09:11:10.651Z,13.40
2022-09-26T09:13:49.119Z,13.40
2022-09-26T09:16:23.968Z,13.50
2022-09-26T09:18:58.710Z,13.50
2022-09-26T09:21:35.827Z,13.60
2022-09-26T09:24:16.142Z,13.60
2022-09-26T09:29:53.384Z,13.60
2022-09-26T09:32:23.439Z,13.60
2022-09-26T09:34:53.930Z,13.70
2022-09-26T09:37:25.414Z,13.80
2022-09-26T09:39:53.974Z,14.00
2022-09-26T09:42:27.095Z,14.20
2022-09-26T09:44:56.940Z,14.10
2022-09-26T09:47:30.034Z,13.90
2022-09-26T09:49:59.779Z,13.90
2022-09-26T09:52:35.911Z,13.90
2022-09-26T09:55:11.256Z,14.00
2022-09-26T09:57:46.900Z,14.20
2022-09-26T10:00:16.904Z,14.30
2022-09-26T10:02:49.060Z,14.40
2022-09-26T10:05:23.195Z,14.30
2022-09-26T10:07:57.677Z,14.20
2022-09-26T10:10:28.810Z,14.30
2022-09-26T10:12:57.245Z,14.50
2022-09-26T10:15:27.546Z,14.40
2022-09-26T10:18:24.040Z,14.40
2022-09-26T10:20:54.395Z,14.50
2022-09-26T10:23:25.595Z,14.60
2022-09-26T10:25:56.980Z,14.60
2022-09-26T10:28:26.798Z,14.60
2022-09-26T10:30:55.699Z,14.70
2022-09-26T10:33:26.078Z,14.80
2022-09-26T10:35:59.999Z,14.80
2022-09-26T10:38:29.384Z,14.70
2022-09-26T10:40:59.372Z,14.60
2022-09-26T10:43:31.956Z,14.50
2022-09-26T10:46:04.843Z,14.50
2022-09-26T10:48:43.051Z,14.30
2022-09-26T10:51:12.063Z,14.30
2022-09-26T10:53:41.827Z,14.00
2022-09-26T10:56:12.061Z,14.00
2022-09-26T10:58:41.746Z,14.00
2022-09-26T11:01:24.303Z,14.00
2022-09-26T11:03:52.721Z,13.90
2022-09-26T11:06:28.175Z,13.90
2022-09-26T11:09:03.275Z,13.90
2022-09-26T11:11:34.057Z,13.90
2022-09-26T11:14:05.479Z,13.90
2022-09-26T11:16:51.066Z,13.70
2022-09-26T11:19:27.574Z,13.40
2022-09-26T11:22:00.465Z,13.30
2022-09-26T11:24:37.355Z,13.30
2022-09-26T11:27:15.846Z,13.40
2022-09-26T11:29:56.046Z,13.40
2022-09-26T11:32:30.893Z,13.50
2022-09-26T11:35:10.671Z,13.70
2022-09-26T11:37:53.631Z,13.60
2022-09-26T11:40:37.173Z,13.60
2022-09-26T11:43:13.698Z,13.80
2022-09-26T11:45:47.635Z,13.70
2022-09-26T11:48:28.869Z,13.70
2022-09-26T11:51:02.285Z,13.90
2022-09-26T11:53:44.370Z,13.60
2022-09-26T11:56:22.970Z,13.50
2022-09-26T11:58:55.345Z,13.20
2022-09-26T12:01:38.294Z,12.90
2022-09-26T12:04:24.352Z,12.70
2022-09-26T12:06:56.148Z,12.40
2022-09-26T12:09:42.015Z,12.40
2022-09-26T12:12:15.584Z,12.50
2022-09-26T12:14:49.641Z,12.50
2022-09-26T12:17:22.158Z,12.50
2022-09-26T12:19:55.820Z,12.40
2022-09-26T12:22:31.869Z,12.30
2022-09-26T12:25:16.528Z,12.20
2022-09-26T12:27:51.475Z,12.20
2022-09-26T12:30:24.467Z,12.30
2022-09-26T12:33:00.455Z,12.20
2022-09-26T12:35:34.270Z,12.10
2022-09-26T12:38:20.124Z,12.10
2022-09-26T12:40:53.669Z,12.20
2022-09-26T12:43:31.530Z,12.30
2022-09-26T12:46:23.287Z,12.40
2022-09-26T12:49:02.894Z,12.30
2022-09-26T12:51:40.305Z,12.20
2022-09-26T12:54:26.814Z,12.20
2022-09-26T12:56:59.753Z,12.20
2022-09-26T12:59:38.656Z,12.10
2022-09-26T13:02:20.253Z,12.20
2022-09-26T13:05:01.214Z,12.20
2022-09-26T13:07:34.740Z,12.20
2022-09-26T13:10:15.441Z,12.20
2022-09-26T13:12:50.023Z,12.20
2022-09-26T13:15:24.365Z,12.20
2022-09-26T13:18:08.009Z,12.20
2022-09-26T13:20:45.264Z,12.10
2022-09-26T13:23:16.955Z,12.30
2022-09-26T13:25:49.777Z,12.40
2022-09-26T13:28:20.992Z,12.40
2022-09-26T13:30:52.054Z,12.40
2022-09-26T13:33:22.366Z,12.30
2022-09-26T13:35:54.340Z,12.30
2022-09-26T13:38:28.571Z,12.30
2022-09-26T13:40:58.910Z,12.30
2022-09-26T13:43:31.831Z,12.20
2022-09-26T13:46:02.341Z,12.10
2022-09-26T13:48:37.196Z,12.00
2022-09-26T13:51:11.293Z,12.00
2022-09-26T13:53:42.131Z,11.90
2022-09-26T13:56:30.520Z,12.00
2022-09-26T13:59:05.423Z,12.00
2022-09-26T14:01:34.744Z,12.10
2022-09-26T14:04:23.802Z,12.00
2022-09-26T14:07:26.709Z,11.90
2022-09-26T14:09:56.414Z,11.80
2022-09-26T14:12:34.842Z,12.00
2022-09-26T14:15:17.905Z,12.10
2022-09-26T14:18:03.710Z,12.10
2022-09-26T14:20:34.401Z,12.10
2022-09-26T14:23:04.378Z,11.90
2022-09-26T14:25:59.574Z,11.70
2022-09-26T14:28:33.917Z,11.70
2022-09-26T14:31:13.154Z,11.60
2022-09-26T14:33:41.587Z,11.60
2022-09-26T14:36:45.843Z,11.50
2022-09-26T14:39:25.768Z,11.60
2022-09-26T14:41:56.931Z,11.50
2022-09-26T14:44:25.762Z,11.60
2022-09-26T14:46:54.760Z,11.50
2022-09-26T14:49:24.860Z,11.60
2022-09-26T14:51:59.909Z,11.60
2022-09-26T14:54:38.401Z,11.70
2022-09-26T14:57:08.472Z,11.60
2022-09-26T14:59:41.277Z,11.50
2022-09-26T15:02:19.557Z,11.60
2022-09-26T15:04:51.150Z,11.60
2022-09-26T15:07:23.729Z,11.50
2022-09-26T15:09:57.003Z,11.60
2022-09-26T15:12:27.949Z,11.40
2022-09-26T15:15:00.086Z,11.40
2022-09-26T15:17:35.773Z,11.40
2022-09-26T15:20:06.920Z,11.40
2022-09-26T15:22:35.202Z,11.40
2022-09-26T15:25:09.985Z,11.30
2022-09-26T15:27:40.647Z,11.30
2022-09-26T15:30:16.868Z,11.30
2022-09-26T15:32:46.595Z,11.30
2022-09-26T15:35:15.753Z,11.30
2022-09-26T15:37:46.267Z,11.30
2022-09-26T15:40:18.064Z,11.40
2022-09-26T15:43:03.068Z,11.30
2022-09-26T15:45:33.559Z,11.30
2022-09-26T15:48:03.162Z,11.30
2022-09-26T15:50:34.556Z,11.30
2022-09-26T15:53:05.113Z,11.30
2022-09-26T15:55:35.411Z,11.40
2022-09-26T15:58:06.245Z,11.40
2022-09-26T16:00:36.468Z,11.50
2022-09-26T16:03:18.793Z,11.50
2022-09-26T16:05:47.122Z,11.50
2022-09-26T16:08:20.744Z,11.40
2022-09-26T16:10:55.206Z,11.40
2022-09-26T16:13:25.607Z,11.40
2022-09-26T16:16:03.104Z,11.30
2022-09-26T16:18:37.013Z,11.20
2022-09-26T16:21:19.047Z,11.20
2022-09-26T16:23:48.246Z,11.20
2022-09-26T16:26:24.951Z,11.20
2022-09-26T16:28:54.515Z,11.10
2022-09-26T16:31:27.184Z,11.10
2022-09-26T16:33:56.886Z,11.00
2022-09-26T16:36:25.905Z,11.00
2022-09-26T16:38:54.913Z,11.00
2022-09-26T16:44:27.335Z,11.00
2022-09-26T16:46:58.981Z,10.90
2022-09-26T16:49:32.041Z,10.90
2022-09-26T16:52:27.791Z,10.90
2022-09-26T16:54:56.167Z,10.90
2022-09-26T16:57:26.859Z,10.90
2022-09-26T17:00:15.204Z,10.90
2022-09-26T17:02:42.552Z,10.90
2022-09-26T17:05:17.227Z,10.90
2022-09-26T17:07:45.690Z,10.90
2022-09-26T17:10:13.825Z,10.90
2022-09-26T17:12:43.230Z,10.90
2022-09-26T17:15:18.252Z,10.90
2022-09-26T17:17:46.221Z,10.90
2022-09-26T17:20:15.883Z,10.90
2022-09-26T17:22:44.000Z,10.80
2022-09-26T17:25:12.660Z,10.90
2022-09-26T17:27:41.479Z,10.80
2022-09-26T17:30:16.496Z,10.90
2022-09-26T17:32:49.809Z,10.90
2022-09-26T17:35:21.138Z,10.90
2022-09-26T17:37:49.073Z,11.00
2022-09-26T17:40:21.916Z,11.00
2022-09-26T17:42:50.035Z,11.00
2022-09-26T17:45:19.582Z,11.00
2022-09-26T17:47:47.765Z,11.10
2022-09-26T17:50:20.095Z,11.10
2022-09-26T17:52:48.184Z,11.10
2022-09-26T17:55:17.333Z,11.10
2022-09-26T17:57:45.632Z,11.10
2022-09-26T18:00:17.972Z,11.10
2022-09-26T18:02:49.172Z,11.10
2022-09-26T18:05:20.437Z,11.10
2022-09-26T18:07:52.093Z,11.10
2022-09-26T18:10:21.468Z,11.10
2022-09-26T18:12:51.567Z,11.10
2022-09-26T18:15:22.377Z,11.10
2022-09-26T18:17:52.699Z,11.10
2022-09-26T18:20:23.116Z,11.20
2022-09-26T18:22:52.994Z,11.10
2022-09-26T18:25:23.040Z,11.20
2022-09-26T18:27:53.345Z,11.30
2022-09-26T18:30:22.557Z,11.20
2022-09-26T18:32:54.571Z,11.30
2022-09-26T18:35:25.751Z,11.30
2022-09-26T18:37:55.725Z,11.30
2022-09-26T18:40:25.384Z,11.30
2022-09-26T18:42:55.052Z,11.30
2022-09-26T18:45:27.874Z,11.30
2022-09-26T18:48:02.608Z,11.30
2022-09-26T18:50:36.434Z,11.40
2022-09-26T18:53:05.410Z,11.40
2022-09-26T18:55:54.516Z,11.40
2022-09-26T18:58:26.040Z,11.40
2022-09-26T19:01:00.480Z,11.40
2022-09-26T19:03:32.254Z,11.40
2022-09-26T19:06:04.203Z,11.40
2022-09-26T19:08:35.533Z,11.40
2022-09-26T19:11:06.924Z,11.50
2022-09-26T19:13:36.068Z,11.50
2022-09-26T19:16:05.127Z,11.50
2022-09-26T19:18:35.789Z,11.50
2022-09-26T19:21:06.402Z,11.50
2022-09-26T19:23:36.492Z,11.60
2022-09-26T19:26:07.313Z,11.60
2022-09-26T19:28:37.027Z,11.60
2022-09-26T19:31:06.389Z,11.60
2022-09-26T19:33:39.250Z,11.60
2022-09-26T19:36:08.225Z,11.70
2022-09-26T19:38:36.672Z,11.60
2022-09-26T19:41:04.988Z,11.60
2022-09-26T19:43:34.985Z,11.60
2022-09-26T19:46:04.176Z,11.70
2022-09-26T19:48:38.631Z,11.60
2022-09-26T19:51:13.315Z,11.70
2022-09-26T19:53:41.412Z,11.70
2022-09-26T19:56:10.203Z,11.70
2022-09-26T19:58:38.247Z,11.70
2022-09-26T20:01:14.229Z,11.70
2022-09-26T20:03:44.000Z,11.70
2022-09-26T20:06:15.013Z,11.70
2022-09-26T20:08:43.205Z,11.70
2022-09-26T20:11:11.554Z,11.70
2022-09-26T20:13:57.010Z,11.70
2022-09-26T20:16:25.602Z,11.70
2022-09-26T20:18:55.836Z,11.70
2022-09-26T20:21:26.495Z,11.70
2022-09-26T20:23:58.084Z,11.60
2022-09-26T20:26:26.929Z,11.60
2022-09-26T20:28:54.859Z,11.60
2022-09-26T20:31:22.944Z,11.60
2022-09-26T20:33:51.509Z,11.50
2022-09-26T20:36:25.316Z,11.60
2022-09-26T20:38:56.346Z,11.60
2022-09-26T20:41:25.715Z,11.60
2022-09-26T20:43:57.138Z,11.50
2022-09-26T20:46:25.411Z,11.60
2022-09-26T20:48:55.587Z,11.60
2022-09-26T20:51:25.773Z,11.60
2022-09-26T20:53:55.158Z,11.60
2022-09-26T20:56:23.079Z,11.60
2022-09-26T20:58:54.277Z,11.60
2022-09-26T21:01:23.179Z,11.70
2022-09-26T21:03:52.461Z,11.60
2022-09-26T21:06:22.324Z,11.60
2022-09-26T21:08:53.155Z,11.60
2022-09-26T21:11:22.986Z,11.60
2022-09-26T21:13:50.934Z,11.60
2022-09-26T21:16:20.354Z,11.60
2022-09-26T21:18:49.254Z,11.60
2022-09-26T21:21:22.242Z,11.60
2022-09-26T21:23:52.834Z,11.60
2022-09-26T21:26:22.918Z,11.60
2022-09-26T21:28:51.657Z,11.60
2022-09-26T21:31:21.889Z,11.60
2022-09-26T21:33:50.087Z,11.60
2022-09-26T21:36:18.570Z,11.60
2022-09-26T21:38:46.584Z,11.50
2022-09-26T21:41:14.771Z,11.60
2022-09-26T21:43:49.463Z,11.60
2022-09-26T21:46:17.716Z,11.60
2022-09-26T21:48:45.850Z,11.60
2022-09-26T21:51:14.002Z,11.60
2022-09-26T21:53:45.786Z,11.60
2022-09-26T21:56:15.062Z,11.50
2022-09-26T21:58:43.478Z,11.50
2022-09-26T22:01:14.742Z,11.50
2022-09-26T22:03:43.297Z,11.50
2022-09-26T22:06:11.446Z,11.40
2022-09-26T22:08:39.925Z,11.40
2022-09-26T22:11:09.107Z,11.40
2022-09-26T22:13:37.299Z,11.30
2022-09-26T22:16:06.091Z,11.30
2022-09-26T22:18:36.235Z,11.30
2022-09-26T22:21:04.907Z,11.20
2022-09-26T22:23:33.313Z,11.30
2022-09-26T22:26:01.259Z,11.20
2022-09-26T22:28:29.639Z,11.20
2022-09-26T22:31:01.937Z,11.10
2022-09-26T22:33:29.999Z,11.10
2022-09-26T22:35:59.547Z,11.10
2022-09-26T22:38:28.002Z,11.10
2022-09-26T22:40:57.147Z,11.10
2022-09-26T22:43:25.458Z,11.10
2022-09-26T22:45:55.797Z,11.10
2022-09-26T22:48:28.164Z,11.10
2022-09-26T22:50:56.354Z,11.20
2022-09-26T22:53:25.764Z,11.20
2022-09-26T22:55:55.649Z,11.20
2022-09-26T22:58:26.760Z,11.20
2022-09-26T23:00:54.981Z,11.20
2022-09-26T23:03:22.933Z,11.30
2022-09-26T23:05:51.249Z,11.30
2022-09-26T23:08:19.163Z,11.20
2022-09-26T23:10:52.154Z,11.20
2022-09-26T23:13:20.330Z,11.10
2022-09-26T23:15:48.618Z,11.10
2022-09-26T23:18:18.213Z,11.10
2022-09-26T23:20:46.358Z,11.10
2022-09-26T23:23:15.123Z,11.10
2022-09-26T23:25:45.976Z,11.10
2022-09-26T23:28:15.339Z,11.10
2022-09-26T23:30:43.910Z,11.10
2022-09-26T23:33:14.521Z,11.20
2022-09-26T23:35:42.472Z,11.10
2022-09-26T23:38:10.671Z,11.10
2022-09-26T23:40:38.696Z,11.10
2022-09-26T23:43:06.922Z,11.00
2022-09-26T23:45:37.353Z,11.00
2022-09-26T23:48:05.521Z,11.00
2022-09-26T23:50:33.447Z,11.00
2022-09-26T23:53:06.357Z,10.90
2022-09-26T23:55:34.659Z,11.00
2022-09-26T23:58:02.940Z,10.90
